Time;durP1;ratioP1;P1;durP2;ratioP2;P2;SDS_P1;SDS_P2;PMS_P1;PMS_P2;Temp;Humidity;BMP_temperature;BMP_pressure;BME280_temperature;BME280_humidity;BME280_pressure;Samples;Min_cycle;Max_cycle;Signal;HPM_P1;HPM_P2
2021/04/10 00:00:42;;;;;;;9.47;4.20;;;;;;;-144.99;100.00;52358.41;4990801;28;20250;-77
2021/04/10 00:03:08;;;;;;;5.97;2.83;;;;;;;-144.99;100.00;52366.56;4990579;28;20223;-75
2021/04/10 00:05:34;;;;;;;12.33;3.93;;;;;;;-144.99;100.00;52338.03;4990747;28;20347;-74
2021/04/10 00:08:02;;;;;;;11.07;3.40;;;;;;;-144.99;100.00;52325.81;4988859;28;21192;-76
2021/04/10 00:10:30;;;;;;;8.20;4.00;;;;;;;-144.99;100.00;52329.88;4990777;28;20614;-74
2021/04/10 00:12:57;;;;;;;5.97;3.80;;;;;;;-144.99;100.00;52370.63;4978952;28;20618;-75
2021/04/10 00:15:24;;;;;;;19.47;7.00;;;;;;;-144.99;100.00;52362.50;4991330;28;20661;-75
2021/04/10 00:17:50;;;;;;;6.93;5.53;;;;;;;-144.99;100.00;52362.50;4986416;28;20631;-75
2021/04/10 00:20:18;;;;;;;7.40;4.00;;;;;;;-144.99;100.00;52346.19;4646287;28;9999884;-75
2021/04/10 00:22:48;;;;;;;8.90;3.93;;;;;;;-144.99;100.00;52358.41;4992108;28;20219;-76
2021/04/10 00:25:16;;;;;;;11.13;4.33;;;;;;;-144.99;100.00;52342.09;4984749;28;20587;-76
2021/04/10 00:27:42;;;;;;;10.20;3.40;;;;;;;-144.99;100.00;52360.44;4990501;28;20633;-79
2021/04/10 00:30:11;;;;;;;9.97;3.33;;;;;;;-144.99;100.00;52358.41;4988908;28;20634;-76
2021/04/10 00:32:37;;;;;;;12.17;5.07;;;;;;;-144.99;100.00;52321.72;4991559;28;20971;-76
2021/04/10 00:35:04;;;;;;;9.73;3.37;;;;;;;-144.99;100.00;52340.06;4991794;28;20619;-76
2021/04/10 00:37:30;;;;;;;6.67;3.50;;;;;;;-144.99;100.00;52350.25;4992254;28;20622;-76
2021/04/10 00:39:56;;;;;;;7.50;3.60;;;;;;;-144.99;100.00;52366.56;4990915;28;20650;-76
2021/04/10 00:42:23;;;;;;;11.13;3.97;;;;;;;-144.99;100.00;52366.56;4992224;28;20633;-76
2021/04/10 00:44:49;;;;;;;8.67;4.10;;;;;;;-144.99;100.00;52376.75;4992422;28;20645;-75
2021/04/10 00:47:16;;;;;;;7.67;3.77;;;;;;;-144.99;100.00;52350.25;4991921;28;20662;-76
2021/04/10 00:49:42;;;;;;;11.13;3.87;;;;;;;-144.99;100.00;52370.63;4990155;28;21168;-77
2021/04/10 00:52:10;;;;;;;10.60;4.27;;;;;;;-144.99;100.00;52372.69;4992023;28;20640;-77
2021/04/10 00:54:37;;;;;;;12.57;6.83;;;;;;;-144.99;100.00;52407.31;4992028;28;20668;-76
2021/04/10 00:57:03;;;;;;;13.97;4.00;;;;;;;-144.99;100.00;52386.94;4991023;28;20650;-79
2021/04/10 00:59:31;;;;;;;8.23;3.93;;;;;;;-144.99;100.00;52350.25;4990122;28;21242;-78
2021/04/10 01:01:58;;;;;;;11.90;5.43;;;;;;;-144.99;100.00;52370.63;4991176;28;20657;-77
2021/04/10 01:04:24;;;;;;;8.50;4.40;;;;;;;-144.99;100.00;52403.25;4992688;28;20614;-77
2021/04/10 01:06:50;;;;;;;12.23;4.33;;;;;;;-144.99;100.00;52329.88;4991875;28;20706;-77
2021/04/10 01:09:16;;;;;;;8.23;4.23;;;;;;;-144.99;100.00;52358.41;4991696;28;20204;-77
2021/04/10 01:11:58;;;;;;;5.77;3.63;;;;;;;-144.99;100.00;52338.03;4993011;28;20634;-77
2021/04/10 01:14:38;;;;;;;12.93;4.27;;;;;;;-144.99;100.00;52346.19;4993031;28;20605;-77
2021/04/10 01:17:09;;;;;;;15.13;4.83;;;;;;;-144.99;100.00;52376.75;4991475;28;20651;-77
2021/04/10 01:19:56;;;;;;;6.27;3.83;;;;;;;-144.99;100.00;52333.94;4988785;28;20642;-77
2021/04/10 01:22:40;;;;;;;13.10;3.73;;;;;;;-144.99;100.00;52346.19;4991573;28;21167;-77
2021/04/10 01:25:09;;;;;;;19.90;8.60;;;;;;;-144.99;100.00;52350.25;4991561;28;20661;-76
2021/04/10 01:27:40;;;;;;;10.17;3.50;;;;;;;-144.99;100.00;52364.53;4991344;28;20663;-74
2021/04/10 01:30:10;;;;;;;7.33;3.50;;;;;;;-144.99;100.00;52350.25;4990261;28;20631;-75
2021/04/10 01:32:44;;;;;;;9.03;3.50;;;;;;;-144.99;100.00;52374.72;4991244;28;20690;-74
2021/04/10 01:35:14;;;;;;;7.50;4.70;;;;;;;-144.99;100.00;52370.63;4991212;28;20630;-75
2021/04/10 01:37:47;;;;;;;6.73;3.57;;;;;;;-144.99;100.00;52329.88;4991287;28;21026;-75
2021/04/10 01:40:14;;;;;;;14.20;4.03;;;;;;;-144.99;100.00;52333.94;4989417;28;21010;-75
2021/04/10 01:42:41;;;;;;;9.30;4.00;;;;;;;-144.99;100.00;52354.34;4990808;28;20642;-75
2021/04/10 01:45:10;;;;;;;11.43;3.97;;;;;;;-144.99;100.00;52325.81;4990440;28;21152;-74
2021/04/10 01:47:39;;;;;;;8.03;3.43;;;;;;;-144.99;100.00;52376.75;4990721;28;20677;-73
2021/04/10 01:50:06;;;;;;;7.87;2.83;;;;;;;-144.99;100.00;52333.94;4987652;28;20645;-74
2021/04/10 01:52:33;;;;;;;7.70;3.90;;;;;;;-144.99;100.00;52305.41;4985533;28;20626;-75
2021/04/10 01:55:00;;;;;;;9.50;3.20;;;;;;;-144.99;100.00;52342.09;4990292;28;20626;-75
2021/04/10 01:57:27;;;;;;;9.50;4.73;;;;;;;-144.99;100.00;52378.78;4990775;28;20615;-75
2021/04/10 01:59:55;;;;;;;7.57;2.87;;;;;;;-144.99;100.00;52378.78;4988414;28;20633;-74
2021/04/10 02:02:22;;;;;;;9.63;3.87;;;;;;;-144.99;100.00;52358.41;4990935;28;20623;-75
2021/04/10 02:04:51;;;;;;;10.00;3.33;;;;;;;-144.99;100.00;52354.34;4990788;28;20618;-75
2021/04/10 02:07:22;;;;;;;14.33;3.67;;;;;;;-144.99;100.00;52338.03;4990109;28;20658;-78
2021/04/10 02:09:49;;;;;;;13.20;3.70;;;;;;;-144.99;100.00;52325.81;4989446;28;20801;-75
2021/04/10 02:12:19;;;;;;;12.13;5.10;;;;;;;-144.99;100.00;52374.72;4989469;28;21187;-78
2021/04/10 02:14:47;;;;;;;11.27;3.00;;;;;;;-144.99;100.00;52346.19;4990446;28;20706;-74
2021/04/10 02:17:15;;;;;;;8.30;4.20;;;;;;;-144.99;100.00;52362.50;4989660;28;21272;-73
2021/04/10 02:19:42;;;;;;;8.37;3.80;;;;;;;-144.99;100.00;52358.41;4988519;28;20662;-74
2021/04/10 02:22:08;;;;;;;6.50;3.07;;;;;;;-144.99;100.00;52378.78;4987378;28;20654;-76
2021/04/10 02:24:34;;;;;;;11.40;3.80;;;;;;;-144.99;100.00;52350.25;4990168;28;21154;-73
2021/04/10 02:27:00;;;;;;;8.97;4.90;;;;;;;-144.99;100.00;52329.88;4989300;28;20231;-74
2021/04/10 02:29:27;;;;;;;7.30;3.00;;;;;;;-144.99;100.00;52352.28;4989853;28;20634;-74
2021/04/10 02:31:58;;;;;;;7.97;4.53;;;;;;;-144.99;100.00;52321.72;4981750;28;20217;-76
2021/04/10 02:34:26;;;;;;;9.37;3.13;;;;;;;-144.99;100.00;52342.09;4989973;28;20633;-74
2021/04/10 02:36:58;;;;;;;8.37;3.73;;;;;;;-144.99;100.00;52382.88;5021739;22;20735;-72
2021/04/10 02:39:26;;;;;;;11.37;3.67;;;;;;;-144.99;100.00;52374.72;5002172;28;21003;-73
2021/04/10 02:41:56;;;;;;;9.83;3.27;;;;;;;-144.99;100.00;52368.59;5007364;28;20653;-72
2021/04/10 02:44:26;;;;;;;6.17;3.60;;;;;;;-144.99;100.00;52342.09;5009542;28;20618;-72
2021/04/10 02:46:56;;;;;;;7.53;2.80;;;;;;;-144.99;100.00;52358.41;5008588;28;20657;-72
2021/04/10 02:49:26;;;;;;;11.90;3.53;;;;;;;-144.99;100.00;52362.50;5009287;28;20661;-72
2021/04/10 02:51:56;;;;;;;10.93;3.23;;;;;;;-144.99;100.00;52346.19;5007539;28;20626;-72
2021/04/10 02:54:25;;;;;;;5.27;2.13;;;;;;;-144.99;100.00;52382.88;5007473;28;20823;-72
2021/04/10 02:56:53;;;;;;;8.53;2.63;;;;;;;-144.99;100.00;52370.63;5008832;28;20650;-75
2021/04/10 02:59:20;;;;;;;8.97;3.27;;;;;;;-144.99;100.00;52366.56;5009708;28;20762;-73
2021/04/10 03:01:47;;;;;;;9.07;3.03;;;;;;;-144.99;100.00;52370.63;5008060;28;20646;-72
2021/04/10 03:04:14;;;;;;;12.53;3.27;;;;;;;-144.99;100.00;52317.66;5009128;28;20980;-75
2021/04/10 03:06:41;;;;;;;15.33;3.90;;;;;;;-144.99;100.00;52378.78;5009072;28;20961;-72
2021/04/10 03:09:08;;;;;;;12.07;3.90;;;;;;;-144.99;100.00;52370.63;5009672;28;20660;-71
2021/04/10 03:11:35;;;;;;;7.10;2.73;;;;;;;-144.99;100.00;52358.41;5009847;28;20617;-71
2021/04/10 03:14:06;;;;;;;5.67;2.67;;;;;;;-144.99;100.00;52331.91;5008131;28;20641;-75
2021/04/10 03:16:33;;;;;;;10.03;3.43;;;;;;;-144.99;100.00;52374.72;5010746;28;20668;-73
2021/04/10 03:19:00;;;;;;;11.23;2.83;;;;;;;-144.99;100.00;52352.28;5012360;28;20629;-71
2021/04/10 03:21:27;;;;;;;6.77;2.23;;;;;;;-144.99;100.00;52344.16;5010705;28;20952;-72
2021/04/10 03:23:53;;;;;;;7.33;2.97;;;;;;;-144.99;100.00;52360.44;5007420;28;20645;-72
2021/04/10 03:26:20;;;;;;;9.10;2.73;;;;;;;-144.99;100.00;52307.47;5015261;28;20628;-72
2021/04/10 03:28:49;;;;;;;4.87;2.57;;;;;;;-144.99;100.00;52352.28;5014399;28;20638;-72
2021/04/10 03:31:16;;;;;;;6.70;3.10;;;;;;;-144.99;100.00;52350.25;5013669;28;20621;-71
2021/04/10 03:33:44;;;;;;;6.73;3.20;;;;;;;-144.99;100.00;52360.44;5010922;28;21111;-71
2021/04/10 03:36:10;;;;;;;12.03;4.83;;;;;;;-144.99;100.00;52372.69;5012762;28;20625;-70
2021/04/10 03:38:39;;;;;;;10.73;5.40;;;;;;;-144.99;100.00;52382.88;5011749;28;20727;-71
2021/04/10 03:41:07;;;;;;;6.43;2.00;;;;;;;-144.99;99.86;52382.88;5012806;28;20695;-72
2021/04/10 03:43:34;;;;;;;16.17;3.17;;;;;;;-144.99;99.71;52378.78;5009043;28;20723;-71
2021/04/10 03:46:01;;;;;;;8.00;2.40;;;;;;;-144.99;99.64;52393.06;5010658;28;20626;-73
2021/04/10 03:48:28;;;;;;;10.80;4.37;;;;;;;-144.99;99.52;52370.63;5012453;28;20741;-71
2021/04/10 03:50:54;;;;;;;5.80;3.27;;;;;;;-144.99;99.34;52358.41;5012469;28;20625;-71
2021/04/10 03:53:20;;;;;;;8.57;3.33;;;;;;;-144.99;99.26;52427.72;5011593;28;20621;-71
2021/04/10 03:55:46;;;;;;;11.13;2.27;;;;;;;-144.99;99.10;52401.22;5011646;28;20215;-73
2021/04/10 03:58:12;;;;;;;8.33;2.70;;;;;;;-144.99;98.98;52370.63;5013210;28;20656;-72
2021/04/10 04:00:38;;;;;;;7.53;2.40;;;;;;;-144.99;98.84;52382.88;5012702;28;20215;-71
2021/04/10 04:03:05;;;;;;;8.57;3.10;;;;;;;-144.99;98.74;52305.41;5013052;28;20322;-72
2021/04/10 04:05:32;;;;;;;5.20;3.70;;;;;;;-144.99;98.55;52382.88;5010252;28;20630;-72
2021/04/10 04:07:58;;;;;;;6.73;4.07;;;;;;;-144.99;98.47;52366.56;5012280;28;21004;-72
2021/04/10 04:10:24;;;;;;;8.03;2.83;;;;;;;-144.99;98.52;52358.41;5012252;28;20665;-73
2021/04/10 04:12:50;;;;;;;12.00;2.83;;;;;;;-144.99;98.37;52380.84;5012774;28;20644;-72
2021/04/10 04:15:16;;;;;;;6.73;2.47;;;;;;;-144.99;98.19;52346.19;5011543;28;20633;-72
2021/04/10 04:17:43;;;;;;;7.63;4.70;;;;;;;-144.99;98.11;52362.50;5016178;28;20654;-72
2021/04/10 04:20:10;;;;;;;11.33;2.50;;;;;;;-144.99;98.01;52350.25;5009345;28;20629;-73
2021/04/10 04:22:37;;;;;;;10.40;2.30;;;;;;;-144.99;97.93;52370.63;5012769;28;21088;-71
2021/04/10 04:25:03;;;;;;;6.67;1.80;;;;;;;-144.99;97.67;52411.41;5010763;28;20629;-72
2021/04/10 04:27:29;;;;;;;4.43;1.70;;;;;;;-144.99;97.71;52354.34;5011620;28;20649;-72
2021/04/10 04:29:55;;;;;;;16.37;2.70;;;;;;;-144.99;97.66;52333.94;5012934;28;21211;-72
2021/04/10 04:32:22;;;;;;;10.10;2.30;;;;;;;-144.99;97.72;52386.94;5012993;28;20244;-73
2021/04/10 04:34:49;;;;;;;10.27;3.13;;;;;;;-144.99;97.62;52350.25;5011847;28;20626;-69
2021/04/10 04:37:15;;;;;;;11.83;3.20;;;;;;;-144.99;97.45;52399.19;5012277;28;20665;-72
2021/04/10 04:39:41;;;;;;;12.03;2.97;;;;;;;-144.99;97.44;52403.25;5012994;28;20958;-71
2021/04/10 04:42:07;;;;;;;9.97;3.33;;;;;;;-144.99;97.29;52382.88;5012363;28;20855;-73
2021/04/10 04:44:33;;;;;;;4.87;2.33;;;;;;;-144.99;97.22;52342.09;5013357;28;21281;-72
2021/04/10 04:46:59;;;;;;;8.57;2.60;;;;;;;-144.99;97.18;52399.19;5010204;28;20660;-73
2021/04/10 04:49:25;;;;;;;7.80;2.23;;;;;;;-144.99;97.19;52321.72;5013142;28;20801;-71
2021/04/10 04:51:56;;;;;;;5.87;2.30;;;;;;;-144.99;97.01;52350.25;5011426;28;20196;-72
2021/04/10 04:54:22;;;;;;;10.03;2.33;;;;;;;-144.99;96.94;52374.72;5015803;28;20199;-73
2021/04/10 04:56:48;;;;;;;12.43;2.83;;;;;;;-144.99;97.00;52362.50;5011022;28;20661;-72
2021/04/10 04:59:14;;;;;;;9.83;3.03;;;;;;;-144.99;97.01;52378.78;5008316;28;20625;-71
2021/04/10 05:01:42;;;;;;;4.97;1.57;;;;;;;-144.99;97.02;52329.88;5012247;28;20665;-72
2021/04/10 05:04:08;;;;;;;16.47;4.50;;;;;;;-144.99;97.03;52407.31;5013011;28;20633;-72
2021/04/10 05:06:34;;;;;;;10.37;1.97;;;;;;;-144.99;96.98;52374.72;5010908;28;20648;-73
2021/04/10 05:09:01;;;;;;;13.67;2.70;;;;;;;-144.99;96.92;52366.56;5011934;28;20633;-71
2021/04/10 05:11:27;;;;;;;9.03;2.17;;;;;;;-144.99;96.99;52380.84;5012203;28;20203;-71
2021/04/10 05:13:53;;;;;;;13.73;2.50;;;;;;;-144.99;96.87;52374.72;5012178;28;20624;-72
2021/04/10 05:16:19;;;;;;;8.97;3.83;;;;;;;-144.99;96.87;52386.94;5009038;28;21037;-70
2021/04/10 05:18:45;;;;;;;12.40;2.80;;;;;;;-144.99;96.80;52376.75;5011313;28;20303;-73
2021/04/10 05:21:11;;;;;;;7.73;2.27;;;;;;;-144.99;96.73;52366.56;5008555;28;20645;-71
2021/04/10 05:23:37;;;;;;;7.70;3.93;;;;;;;-144.99;96.78;52366.56;5011361;28;20203;-73
2021/04/10 05:26:04;;;;;;;3.77;2.33;;;;;;;-144.99;96.73;52354.34;5010658;28;20218;-73
2021/04/10 05:28:30;;;;;;;8.23;3.10;;;;;;;-144.99;96.69;52372.69;5006823;28;20676;-73
2021/04/10 05:31:01;;;;;;;7.60;4.07;;;;;;;-144.99;96.61;52362.50;5010935;28;20634;-72
2021/04/10 05:33:27;;;;;;;8.07;2.33;;;;;;;-144.99;96.53;52366.56;5011747;28;20354;-73
2021/04/10 05:35:53;;;;;;;8.47;3.43;;;;;;;-144.99;96.47;52370.63;5011960;28;20621;-71
2021/04/10 05:38:19;;;;;;;6.07;2.57;;;;;;;-144.99;96.40;52388.97;5008253;28;20704;-71
2021/04/10 05:40:45;;;;;;;8.40;2.70;;;;;;;-144.99;96.33;52364.53;5012274;28;20238;-74
2021/04/10 05:43:11;;;;;;;10.90;3.00;;;;;;;-144.99;96.36;52386.94;5011657;28;20709;-72
2021/04/10 05:45:37;;;;;;;12.53;6.13;;;;;;;-144.99;96.26;52354.34;5010730;28;20554;-72
2021/04/10 05:48:04;;;;;;;8.20;2.60;;;;;;;-144.99;96.14;52350.25;5008790;28;20665;-72
2021/04/10 05:50:30;;;;;;;6.60;3.50;;;;;;;-144.99;96.12;52378.78;5011242;28;20195;-73
2021/04/10 05:52:56;;;;;;;8.33;3.27;;;;;;;-144.99;96.07;52399.19;5006363;28;20633;-73
2021/04/10 05:55:22;;;;;;;7.47;2.47;;;;;;;-144.99;95.87;52358.41;5011224;28;20733;-72
2021/04/10 05:57:48;;;;;;;3.90;2.20;;;;;;;-144.99;95.75;52370.63;5009979;28;20657;-72
2021/04/10 06:00:16;;;;;;;7.70;2.13;;;;;;;-144.99;95.54;52329.88;5009769;28;20195;-72
2021/04/10 06:02:42;;;;;;;6.40;2.33;;;;;;;-144.99;95.42;52358.41;5020254;28;20207;-72
2021/04/10 06:05:09;;;;;;;6.60;2.80;;;;;;;-144.99;95.27;52350.25;5026358;28;20737;-73
2021/04/10 06:07:35;;;;;;;7.93;3.20;;;;;;;-144.99;95.20;52346.19;5028084;28;20282;-73
2021/04/10 06:10:02;;;;;;;8.03;3.13;;;;;;;-144.99;95.09;52386.94;5020215;28;20634;-73
2021/04/10 06:12:27;;;;;;;3.83;1.73;;;;;;;-144.99;94.88;52366.56;5011195;28;20275;-74
2021/04/10 06:14:54;;;;;;;7.07;2.30;;;;;;;-144.99;94.58;52354.34;5010477;28;20955;-72
2021/04/10 06:17:21;;;;;;;10.07;4.60;;;;;;;-144.99;94.34;52348.22;5010839;28;21030;-77
2021/04/10 06:19:47;;;;;;;7.30;3.30;;;;;;;-144.99;94.10;52323.75;5005534;28;20203;-73
2021/04/10 06:22:13;;;;;;;4.20;1.73;;;;;;;-144.99;93.69;52391.03;5010995;28;20652;-72
2021/04/10 06:24:39;;;;;;;14.13;2.70;;;;;;;-144.99;93.26;52378.78;5010250;28;20199;-73
2021/04/10 06:27:08;;;;;;;5.60;2.17;;;;;;;-144.99;92.64;52395.09;5010222;28;20330;-73
2021/04/10 06:29:34;;;;;;;17.83;3.00;;;;;;;-144.99;92.20;52319.69;5010451;28;20207;-74
2021/04/10 06:32:00;;;;;;;10.07;2.10;;;;;;;-144.99;91.73;52366.56;5013662;28;20621;-74
2021/04/10 06:34:26;;;;;;;10.43;2.50;;;;;;;-144.99;91.25;52338.03;5011731;28;20222;-73
2021/04/10 06:36:52;;;;;;;8.40;1.97;;;;;;;-144.99;89.82;52319.69;5010031;28;20314;-73
2021/04/10 06:39:18;;;;;;;6.70;3.63;;;;;;;-144.99;89.53;52344.16;5010199;28;20633;-74
2021/04/10 06:41:44;;;;;;;8.43;3.00;;;;;;;-144.99;89.13;52346.19;5009771;28;20703;-73
2021/04/10 06:44:11;;;;;;;5.03;2.13;;;;;;;-144.99;88.56;52382.88;5010676;28;20621;-72
2021/04/10 06:46:38;;;;;;;9.83;2.83;;;;;;;-144.99;87.87;52370.63;5009854;28;20211;-71
2021/04/10 06:49:06;;;;;;;10.23;3.80;;;;;;;-144.99;86.35;52376.75;5009296;28;21045;-71
2021/04/10 06:51:33;;;;;;;11.20;3.73;;;;;;;-144.99;86.09;52317.66;5010303;28;20634;-72
2021/04/10 06:54:01;;;;;;;8.20;3.37;;;;;;;-144.99;85.42;52354.34;5009806;28;20696;-71
2021/04/10 06:56:31;;;;;;;8.10;1.87;;;;;;;-144.99;84.37;52346.19;5009240;28;20629;-70
2021/04/10 06:59:06;;;;;;;5.60;2.63;;;;;;;-144.99;83.73;52331.91;5007706;28;20642;-72
2021/04/10 07:01:33;;;;;;;12.37;5.77;;;;;;;-144.99;83.09;52350.25;5003962;28;21248;-71
2021/04/10 07:04:00;;;;;;;8.10;3.07;;;;;;;-144.99;82.56;52370.63;5010638;28;20617;-71
2021/04/10 07:06:26;;;;;;;15.63;3.03;;;;;;;-144.99;82.15;52329.88;5009751;28;20203;-71
2021/04/10 07:08:54;;;;;;;12.67;2.73;;;;;;;-144.99;81.51;52358.41;5008012;28;20656;-71
2021/04/10 07:11:20;;;;;;;7.17;2.70;;;;;;;-144.99;80.94;52327.84;5009645;28;20237;-73
2021/04/10 07:13:46;;;;;;;6.33;2.60;;;;;;;-144.99;80.43;52362.50;5009991;28;20984;-72
2021/04/10 07:16:13;;;;;;;11.40;2.17;;;;;;;-144.99;79.62;52305.41;5010498;28;20621;-74
2021/04/10 07:18:39;;;;;;;8.53;2.17;;;;;;;-144.99;79.30;52368.59;5009446;28;20493;-70
2021/04/10 07:21:16;;;;;;;5.03;2.23;;;;;;;-144.99;79.58;52350.25;5005171;28;20744;-70
2021/04/10 07:23:47;;;;;;;8.17;2.47;;;;;;;-144.99;79.23;52350.25;5009721;28;20233;-70
2021/04/10 07:26:15;;;;;;;10.03;2.80;;;;;;;-144.99;79.06;52311.53;5008162;28;20202;-69
2021/04/10 07:28:45;;;;;;;12.80;2.17;;;;;;;-144.99;77.36;52307.47;5008022;28;20223;-70
2021/04/10 07:31:12;;;;;;;7.37;2.20;;;;;;;-144.99;77.33;52331.91;5008693;28;20191;-71
2021/04/10 07:33:39;;;;;;;8.07;2.70;;;;;;;-144.99;76.48;52342.09;5009320;28;20225;-72
2021/04/10 07:36:10;;;;;;;9.43;2.37;;;;;;;-144.99;75.22;52350.25;5006681;28;20215;-70
2021/04/10 07:38:41;;;;;;;9.40;3.90;;;;;;;-144.99;75.21;52329.88;5007779;28;20288;-72
2021/04/10 07:41:18;;;;;;;6.37;2.53;;;;;;;-144.99;74.67;52309.50;5008996;28;20702;-71
2021/04/10 07:43:45;;;;;;;6.00;2.10;;;;;;;-144.99;74.13;52338.03;5009011;28;20289;-71
2021/04/10 07:46:22;;;;;;;15.50;6.13;;;;;;;-144.99;73.02;52354.34;5007777;28;20294;-71
2021/04/10 07:49:09;;;;;;;7.80;2.07;;;;;;;-144.99;71.28;52325.81;5005978;28;20708;-75
2021/04/10 07:51:37;;;;;;;8.07;1.50;;;;;;;-144.99;70.16;52325.81;5011214;28;20199;-77
2021/04/10 07:54:22;;;;;;;13.07;2.23;;;;;;;-144.99;68.70;52342.09;5010839;28;20230;-74
2021/04/10 07:56:57;;;;;;;6.27;1.83;;;;;;;-144.99;66.96;52309.50;5005603;28;20267;-74
2021/04/10 07:59:23;;;;;;;10.13;3.90;;;;;;;-144.99;65.43;52287.06;5011634;28;20199;-74
2021/04/10 08:01:50;;;;;;;6.00;1.60;;;;;;;-144.99;65.36;52313.56;5011099;28;20223;-73
2021/04/10 08:04:16;;;;;;;2.83;1.33;;;;;;;-144.99;63.64;52276.88;5010057;28;20199;-74
2021/04/10 08:06:56;;;;;;;13.93;2.30;;;;;;;-144.99;62.75;52276.88;5011501;28;20265;-75
2021/04/10 08:09:33;;;;;;;11.43;2.23;;;;;;;-144.99;61.75;52325.81;5006285;28;20207;-74
2021/04/10 08:12:01;;;;;;;5.90;1.50;;;;;;;-144.99;61.09;52272.81;5013561;28;20577;-73
2021/04/10 08:14:39;;;;;;;9.77;2.10;;;;;;;-144.99;60.28;52276.88;5016253;28;20215;-78
2021/04/10 08:17:06;;;;;;;7.97;2.00;;;;;;;-144.99;58.59;52293.19;5015038;28;20222;-74
2021/04/10 08:19:34;;;;;;;9.93;2.40;;;;;;;-144.99;58.04;52307.47;5012384;28;20236;-80
2021/04/10 08:22:00;;;;;;;4.67;1.80;;;;;;;-144.99;57.66;52262.63;5010631;28;20696;-75
2021/04/10 08:24:33;;;;;;;13.13;2.70;;;;;;;-144.99;56.94;52313.56;5011897;28;20207;-77
2021/04/10 08:27:02;;;;;;;9.27;3.80;;;;;;;-144.99;55.69;52301.34;5014985;28;20820;-78
2021/04/10 08:29:28;;;;;;;6.30;2.13;;;;;;;-144.99;55.30;52283.00;5014890;28;20209;-76
2021/04/10 08:31:55;;;;;;;8.10;2.00;;;;;;;-144.99;54.88;52301.34;5013061;28;20226;-75
2021/04/10 08:34:22;;;;;;;3.77;2.23;;;;;;;-144.99;53.55;52289.13;5014730;28;20214;-77
2021/04/10 08:36:54;;;;;;;4.77;2.00;;;;;;;-144.99;54.03;52317.66;5014588;28;20226;-74
2021/04/10 08:39:23;;;;;;;8.17;1.93;;;;;;;-144.99;53.06;52268.72;5032923;22;20724;-76
2021/04/10 08:41:54;;;;;;;7.33;3.13;;;;;;;-144.99;53.34;52317.66;4992383;28;20223;-76
2021/04/10 08:44:25;;;;;;;5.17;1.57;;;;;;;-144.99;52.60;52278.91;4988698;28;20206;-76
2021/04/10 08:46:52;;;;;;;4.03;1.73;;;;;;;-144.99;52.33;52309.50;4980803;28;20204;-74
2021/04/10 08:49:20;;;;;;;5.70;2.57;;;;;;;-144.99;51.90;52285.03;4989719;28;20282;-75
2021/04/10 08:51:50;;;;;;;3.60;1.43;;;;;;;-144.99;51.60;52297.25;4988326;28;20230;-76
2021/04/10 08:54:18;;;;;;;5.47;1.60;;;;;;;-144.99;51.72;52305.41;4989995;28;20621;-74
2021/04/10 08:56:48;;;;;;;4.03;1.50;;;;;;;-144.99;51.62;52309.50;4989345;28;20218;-74
2021/04/10 08:59:16;;;;;;;4.30;1.47;;;;;;;-144.99;51.44;52293.19;4985080;28;20266;-75
2021/04/10 09:01:45;;;;;;;4.40;1.53;;;;;;;-144.99;53.11;52289.13;4989621;28;20216;-73
2021/04/10 09:04:15;;;;;;;4.37;1.67;;;;;;;-144.99;51.75;52244.28;4992174;28;20543;-74
2021/04/10 09:06:49;;;;;;;9.07;2.10;;;;;;;-144.99;50.85;52307.47;4992117;28;20211;-74
2021/04/10 09:09:28;;;;;;;3.30;1.10;;;;;;;-144.99;50.00;52266.69;4989999;28;20215;-74
2021/04/10 09:12:21;;;;;;;6.60;1.40;;;;;;;-144.99;49.60;52305.41;4991565;28;20214;-73
2021/04/10 09:14:49;;;;;;;2.57;1.00;;;;;;;-144.99;49.12;52313.56;4984262;28;20207;-73
2021/04/10 09:17:16;;;;;;;9.93;1.93;;;;;;;-144.99;48.93;52240.19;4990049;28;20313;-75
2021/04/10 09:19:45;;;;;;;9.40;1.40;;;;;;;-144.99;49.24;52305.41;4981832;28;20216;-74
2021/04/10 09:22:18;;;;;;;7.17;1.77;;;;;;;-144.99;48.88;52297.25;4988294;28;20227;-74
2021/04/10 09:24:46;;;;;;;11.07;2.73;;;;;;;-144.99;48.12;52252.44;4986350;28;20207;-73
2021/04/10 09:27:20;;;;;;;2.00;1.17;;;;;;;-144.99;48.81;52236.13;4987453;28;20685;-74
2021/04/10 09:29:55;;;;;;;4.13;1.27;;;;;;;-144.99;48.60;52252.44;4987845;28;20289;-75
2021/04/10 09:32:33;;;;;;;7.70;2.40;;;;;;;-144.99;47.59;52256.50;4986295;28;20201;-75
2021/04/10 09:35:01;;;;;;;6.27;1.20;;;;;;;-144.99;46.79;52256.50;4987377;28;20204;-74
2021/04/10 09:37:51;;;;;;;13.73;1.87;;;;;;;-144.99;46.17;52223.88;4987057;28;20219;-74
2021/04/10 09:40:20;;;;;;;3.93;1.40;;;;;;;-144.99;46.70;52244.28;4985588;28;20219;-74
2021/04/10 09:42:48;;;;;;;10.00;4.93;;;;;;;-144.99;46.52;52285.03;4983305;28;20220;-75
2021/04/10 09:45:17;;;;;;;8.43;3.47;;;;;;;-144.99;45.86;52252.44;4988649;28;20204;-73
2021/04/10 09:48:30;;;;;;;8.20;2.67;;;;;;;-144.99;45.39;52276.88;4988989;28;20212;-74
2021/04/10 09:51:08;;;;;;;5.53;2.20;;;;;;;-144.99;45.30;52215.75;4986071;28;20211;-73
2021/04/10 09:53:35;;;;;;;6.47;2.33;;;;;;;-144.99;44.79;52260.56;4985405;28;20661;-74
2021/04/10 09:56:09;;;;;;;6.63;2.63;;;;;;;-144.99;44.22;52244.28;4989338;28;20200;-74
2021/04/10 09:58:38;;;;;;;5.00;1.20;;;;;;;-144.99;43.93;52240.19;4990250;28;20217;-75
2021/04/10 10:01:10;;;;;;;4.70;1.20;;;;;;;-144.99;43.31;52236.13;4985320;28;21625;-74
2021/04/10 10:03:36;;;;;;;14.00;2.37;;;;;;;-144.99;43.27;52244.28;4989490;28;20203;-74
2021/04/10 10:06:16;;;;;;;5.67;1.17;;;;;;;-144.99;43.39;52289.13;4990924;28;20207;-76
2021/04/10 10:08:43;;;;;;;5.80;1.57;;;;;;;-144.99;42.51;52260.56;4990399;28;20222;-74
2021/04/10 10:11:09;;;;;;;4.87;1.87;;;;;;;-144.99;42.69;52260.56;4990662;28;20203;-73
2021/04/10 10:13:36;;;;;;;9.10;2.00;;;;;;;-144.99;43.19;52268.72;4991281;28;20204;-73
2021/04/10 10:16:03;;;;;;;8.40;2.00;;;;;;;-144.99;42.99;52268.72;4990233;28;20492;-73
2021/04/10 10:18:33;;;;;;;6.53;1.50;;;;;;;-144.99;42.75;52209.63;4989671;28;20607;-75
2021/04/10 10:21:01;;;;;;;6.83;1.30;;;;;;;-144.99;42.46;52207.59;4990264;28;20242;-74
2021/04/10 10:23:30;;;;;;;6.67;1.03;;;;;;;-144.99;42.05;52240.19;4989726;28;20200;-73
2021/04/10 10:26:05;;;;;;;5.20;1.83;;;;;;;-144.99;41.28;52252.44;4991024;28;20254;-75
2021/04/10 10:28:32;;;;;;;2.60;1.20;;;;;;;-144.99;40.85;52207.59;4990777;28;20238;-73
2021/04/10 10:31:04;;;;;;;6.10;2.10;;;;;;;-144.99;41.02;52215.75;4990164;28;20196;-73
2021/04/10 10:33:30;;;;;;;3.37;1.77;;;;;;;-144.99;39.14;52234.09;4989762;28;20218;-75
2021/04/10 10:35:57;;;;;;;5.60;1.13;;;;;;;-144.99;39.38;52240.19;4986933;28;20204;-74
2021/04/10 10:38:31;;;;;;;6.57;2.27;;;;;;;-144.99;39.79;52197.41;4990832;28;20246;-73
2021/04/10 10:41:00;;;;;;;4.33;1.40;;;;;;;-144.99;38.99;52215.75;4990151;28;20195;-74
2021/04/10 10:43:27;;;;;;;5.23;1.30;;;;;;;-144.99;38.92;52162.75;4993231;28;20192;-73
2021/04/10 10:45:55;;;;;;;3.93;1.50;;;;;;;-144.99;38.80;52174.97;4985761;28;20196;-74
2021/04/10 10:48:27;;;;;;;4.70;1.97;;;;;;;-144.99;38.24;52203.50;4990232;28;20211;-74
2021/04/10 10:50:56;;;;;;;5.23;1.47;;;;;;;-144.99;38.15;52238.16;4985575;28;20207;-73
2021/04/10 10:53:23;;;;;;;6.87;1.37;;;;;;;-144.99;38.35;52252.44;4989446;28;20280;-74
2021/04/10 10:56:12;;;;;;;5.77;3.63;;;;;;;-144.99;38.11;52254.47;4989529;28;20205;-74
2021/04/10 10:58:45;;;;;;;7.63;1.87;;;;;;;-144.99;38.58;52232.03;4982888;28;20211;-75
2021/04/10 11:01:24;;;;;;;7.17;2.27;;;;;;;-144.99;39.30;52260.56;4989115;28;20235;-73
2021/04/10 11:03:53;;;;;;;7.80;4.57;;;;;;;-144.99;38.51;52193.31;4984420;28;20200;-75
2021/04/10 11:06:22;;;;;;;3.70;1.93;;;;;;;-144.99;38.21;52268.72;4989955;28;20199;-74
2021/04/10 11:08:48;;;;;;;4.90;1.53;;;;;;;-144.99;38.20;52124.03;4990251;28;20227;-75
2021/04/10 11:11:16;;;;;;;6.70;1.70;;;;;;;-144.99;36.77;52130.13;4986727;28;20208;-74
2021/04/10 11:13:45;;;;;;;5.00;1.00;;;;;;;-144.99;36.06;52113.84;4983473;28;20204;-74
2021/04/10 11:16:11;;;;;;;6.33;1.43;;;;;;;-144.99;35.50;52146.44;4988516;28;20629;-73
2021/04/10 11:18:38;;;;;;;8.07;1.73;;;;;;;-144.99;33.97;52126.06;4987477;28;20201;-74